sensor_id;sensor_type;location;lat;lon;timestamp;temperature;humidity
22578;DHT22;11455;52.390;13.028;2022-12-18T00:01:35;-1.10;1.00
22578;DHT22;11455;52.390;13.028;2022-12-18T00:04:02;-1.10;1.00
22578;DHT22;11455;52.390;13.028;2022-12-18T00:06:30;-1.10;1.00
22578;DHT22;11455;52.390;13.028;2022-12-18T00:08:57;-1.10;1.00
22578;DHT22;11455;52.390;13.028;2022-12-18T00:11:24;-1.20;1.00
22578;DHT22;11455;52.390;13.028;2022-12-18T00:13:50;-1.10;9.80
22578;DHT22;11455;52.390;13.028;2022-12-18T00:16:19;-1.10;26.20
22578;DHT22;11455;52.390;13.028;2022-12-18T00:18:46;-1.00;13.80
22578;DHT22;11455;52.390;13.028;2022-12-18T00:21:12;-1.00;3.40
22578;DHT22;11455;52.390;13.028;2022-12-18T00:23:39;-1.00;4.50
22578;DHT22;11455;52.390;13.028;2022-12-18T00:26:06;-1.10;5.10
22578;DHT22;11455;52.390;13.028;2022-12-18T00:28:32;-1.00;1.60
22578;DHT22;11455;52.390;13.028;2022-12-18T00:31:01;-1.00;7.70
22578;DHT22;11455;52.390;13.028;2022-12-18T00:33:27;-1.00;6.60
22578;DHT22;11455;52.390;13.028;2022-12-18T00:35:53;-0.90;11.40
22578;DHT22;11455;52.390;13.028;2022-12-18T00:38:18;-0.90;3.70
22578;DHT22;11455;52.390;13.028;2022-12-18T00:40:44;-0.90;9.00
22578;DHT22;11455;52.390;13.028;2022-12-18T00:43:11;-0.90;14.00
22578;DHT22;11455;52.390;13.028;2022-12-18T00:45:37;-0.80;14.00
22578;DHT22;11455;52.390;13.028;2022-12-18T00:48:03;-0.80;1.00
22578;DHT22;11455;52.390;13.028;2022-12-18T00:50:29;-0.80;3.90
22578;DHT22;11455;52.390;13.028;2022-12-18T00:52:55;-0.80;11.40
22578;DHT22;11455;52.390;13.028;2022-12-18T00:55:20;-0.80;4.00
22578;DHT22;11455;52.390;13.028;2022-12-18T00:57:46;-0.80;15.20
22578;DHT22;11455;52.390;13.028;2022-12-18T01:00:13;-0.80;10.60
22578;DHT22;11455;52.390;13.028;2022-12-18T01:02:39;-0.80;10.50
22578;DHT22;11455;52.390;13.028;2022-12-18T01:05:06;-0.80;8.20
22578;DHT22;11455;52.390;13.028;2022-12-18T01:07:32;-0.80;1.00
22578;DHT22;11455;52.390;13.028;2022-12-18T01:09:58;-0.90;1.00
22578;DHT22;11455;52.390;13.028;2022-12-18T01:12:23;-0.90;1.00
22578;DHT22;11455;52.390;13.028;2022-12-18T01:14:49;-0.90;1.00
22578;DHT22;11455;52.390;13.028;2022-12-18T01:17:15;-0.90;1.10
22578;DHT22;11455;52.390;13.028;2022-12-18T01:19:41;-1.10;1.20
22578;DHT22;11455;52.390;13.028;2022-12-18T01:22:07;-1.10;11.40
22578;DHT22;11455;52.390;13.028;2022-12-18T01:24:33;-1.00;10.50
22578;DHT22;11455;52.390;13.028;2022-12-18T01:26:58;-1.00;11.10
22578;DHT22;11455;52.390;13.028;2022-12-18T01:29:24;-1.00;18.10
22578;DHT22;11455;52.390;13.028;2022-12-18T01:31:49;-1.00;22.20
22578;DHT22;11455;52.390;13.028;2022-12-18T01:34:15;-1.00;10.80
22578;DHT22;11455;52.390;13.028;2022-12-18T01:36:41;-0.90;8.90
22578;DHT22;11455;52.390;13.028;2022-12-18T01:39:11;-0.90;15.20
22578;DHT22;11455;52.390;13.028;2022-12-18T01:41:37;-0.90;7.50
22578;DHT22;11455;52.390;13.028;2022-12-18T01:47:06;-0.90;10.80
22578;DHT22;11455;52.390;13.028;2022-12-18T01:49:31;-0.90;12.70
22578;DHT22;11455;52.390;13.028;2022-12-18T01:51:57;-0.90;18.70
22578;DHT22;11455;52.390;13.028;2022-12-18T01:54:22;-0.90;13.90
22578;DHT22;11455;52.390;13.028;2022-12-18T01:56:49;-0.90;14.10
22578;DHT22;11455;52.390;13.028;2022-12-18T01:59:15;-0.90;18.40
22578;DHT22;11455;52.390;13.028;2022-12-18T02:01:41;-0.90;5.50
22578;DHT22;11455;52.390;13.028;2022-12-18T02:04:21;-0.80;1.00
22578;DHT22;11455;52.390;13.028;2022-12-18T02:09:26;-0.80;1.00
22578;DHT22;11455;52.390;13.028;2022-12-18T02:22:00;-0.90;1.00
22578;DHT22;11455;52.390;13.028;2022-12-18T02:24:42;-0.90;1.00
22578;DHT22;11455;52.390;13.028;2022-12-18T02:27:11;-0.90;1.00
22578;DHT22;11455;52.390;13.028;2022-12-18T02:29:45;-1.00;1.00
22578;DHT22;11455;52.390;13.028;2022-12-18T02:32:13;-1.00;1.00
22578;DHT22;11455;52.390;13.028;2022-12-18T02:34:40;-0.90;1.00
22578;DHT22;11455;52.390;13.028;2022-12-18T02:37:11;-0.90;1.00
22578;DHT22;11455;52.390;13.028;2022-12-18T02:39:38;-0.90;1.00
22578;DHT22;11455;52.390;13.028;2022-12-18T02:42:05;-0.90;1.00
22578;DHT22;11455;52.390;13.028;2022-12-18T02:44:34;-0.90;1.00
22578;DHT22;11455;52.390;13.028;2022-12-18T02:47:01;-0.90;1.00
22578;DHT22;11455;52.390;13.028;2022-12-18T02:57:40;-0.90;1.00
22578;DHT22;11455;52.390;13.028;2022-12-18T03:00:15;-0.90;1.00
22578;DHT22;11455;52.390;13.028;2022-12-18T03:05:10;-1.00;1.00
22578;DHT22;11455;52.390;13.028;2022-12-18T03:07:46;-1.00;1.00
22578;DHT22;11455;52.390;13.028;2022-12-18T03:10:14;-1.10;1.00
22578;DHT22;11455;52.390;13.028;2022-12-18T03:12:44;-1.30;1.00
22578;DHT22;11455;52.390;13.028;2022-12-18T03:15:13;-1.30;2.00
22578;DHT22;11455;52.390;13.028;2022-12-18T03:17:41;-1.20;1.00
22578;DHT22;11455;52.390;13.028;2022-12-18T03:20:10;-1.20;1.00
22578;DHT22;11455;52.390;13.028;2022-12-18T03:22:37;-1.10;1.00
22578;DHT22;11455;52.390;13.028;2022-12-18T03:25:04;-1.10;1.00
22578;DHT22;11455;52.390;13.028;2022-12-18T03:27:31;-1.00;1.00
22578;DHT22;11455;52.390;13.028;2022-12-18T03:30:07;-1.00;1.00
22578;DHT22;11455;52.390;13.028;2022-12-18T03:33:09;-1.00;1.00
22578;DHT22;11455;52.390;13.028;2022-12-18T03:35:31;-1.00;1.00
22578;DHT22;11455;52.390;13.028;2022-12-18T03:37:58;-1.00;1.00
22578;DHT22;11455;52.390;13.028;2022-12-18T03:40:29;-1.00;1.00
22578;DHT22;11455;52.390;13.028;2022-12-18T03:42:59;-1.10;1.00
22578;DHT22;11455;52.390;13.028;2022-12-18T03:48:01;-1.10;1.00
22578;DHT22;11455;52.390;13.028;2022-12-18T03:55:35;-1.10;1.00
22578;DHT22;11455;52.390;13.028;2022-12-18T03:58:03;-1.10;1.00
22578;DHT22;11455;52.390;13.028;2022-12-18T04:00:41;-1.10;1.00
22578;DHT22;11455;52.390;13.028;2022-12-18T04:03:09;-1.10;1.00
22578;DHT22;11455;52.390;13.028;2022-12-18T04:05:43;-1.00;1.00
22578;DHT22;11455;52.390;13.028;2022-12-18T04:08:09;-1.00;1.00
22578;DHT22;11455;52.390;13.028;2022-12-18T04:10:40;-1.00;1.00
22578;DHT22;11455;52.390;13.028;2022-12-18T04:13:06;-1.00;1.00
22578;DHT22;11455;52.390;13.028;2022-12-18T04:15:33;-1.00;1.00
22578;DHT22;11455;52.390;13.028;2022-12-18T04:17:59;-1.00;1.00
22578;DHT22;11455;52.390;13.028;2022-12-18T04:20:32;-1.10;1.00
22578;DHT22;11455;52.390;13.028;2022-12-18T04:22:57;-1.00;1.00
22578;DHT22;11455;52.390;13.028;2022-12-18T04:25:23;-1.10;1.00
22578;DHT22;11455;52.390;13.028;2022-12-18T04:27:59;-1.10;1.00
22578;DHT22;11455;52.390;13.028;2022-12-18T04:30:25;-1.10;1.00
22578;DHT22;11455;52.390;13.028;2022-12-18T04:32:51;-1.20;1.00
22578;DHT22;11455;52.390;13.028;2022-12-18T04:35:16;-1.10;1.00
22578;DHT22;11455;52.390;13.028;2022-12-18T04:37:43;-1.10;1.00
22578;DHT22;11455;52.390;13.028;2022-12-18T04:40:09;-1.10;1.00
22578;DHT22;11455;52.390;13.028;2022-12-18T04:42:40;-1.20;1.00
22578;DHT22;11455;52.390;13.028;2022-12-18T04:45:06;-1.20;1.00
22578;DHT22;11455;52.390;13.028;2022-12-18T04:47:32;-1.30;1.00
22578;DHT22;11455;52.390;13.028;2022-12-18T04:49:58;-1.30;1.00
22578;DHT22;11455;52.390;13.028;2022-12-18T04:52:23;-1.30;1.00
22578;DHT22;11455;52.390;13.028;2022-12-18T04:54:49;-1.30;1.00
22578;DHT22;11455;52.390;13.028;2022-12-18T04:57:14;-1.30;1.00
22578;DHT22;11455;52.390;13.028;2022-12-18T04:59:40;-1.30;1.00
22578;DHT22;11455;52.390;13.028;2022-12-18T05:02:06;-1.20;1.00
22578;DHT22;11455;52.390;13.028;2022-12-18T05:04:32;-1.20;1.00
22578;DHT22;11455;52.390;13.028;2022-12-18T05:06:57;-1.20;1.00
22578;DHT22;11455;52.390;13.028;2022-12-18T05:09:23;-1.20;1.00
22578;DHT22;11455;52.390;13.028;2022-12-18T05:11:49;-1.30;1.00
22578;DHT22;11455;52.390;13.028;2022-12-18T05:14:14;-1.40;3.00
22578;DHT22;11455;52.390;13.028;2022-12-18T05:16:40;-1.40;4.50
22578;DHT22;11455;52.390;13.028;2022-12-18T05:19:06;-1.40;14.60
22578;DHT22;11455;52.390;13.028;2022-12-18T05:21:32;-1.40;18.60
22578;DHT22;11455;52.390;13.028;2022-12-18T05:23:57;-1.30;9.30
22578;DHT22;11455;52.390;13.028;2022-12-18T05:26:23;-1.20;10.00
22578;DHT22;11455;52.390;13.028;2022-12-18T05:28:49;-1.20;7.80
22578;DHT22;11455;52.390;13.028;2022-12-18T05:31:14;-1.20;6.80
22578;DHT22;11455;52.390;13.028;2022-12-18T05:33:40;-1.20;5.60
22578;DHT22;11455;52.390;13.028;2022-12-18T05:36:06;-1.20;12.20
22578;DHT22;11455;52.390;13.028;2022-12-18T05:38:33;-1.10;10.70
22578;DHT22;11455;52.390;13.028;2022-12-18T05:40:59;-1.20;11.60
22578;DHT22;11455;52.390;13.028;2022-12-18T05:43:25;-1.20;22.10
22578;DHT22;11455;52.390;13.028;2022-12-18T05:45:53;-1.20;18.00
22578;DHT22;11455;52.390;13.028;2022-12-18T05:48:19;-1.10;24.30
22578;DHT22;11455;52.390;13.028;2022-12-18T05:50:46;-1.10;25.60
22578;DHT22;11455;52.390;13.028;2022-12-18T05:53:12;-1.10;26.40
22578;DHT22;11455;52.390;13.028;2022-12-18T05:55:39;-1.10;34.90
22578;DHT22;11455;52.390;13.028;2022-12-18T05:58:05;-1.10;34.70
22578;DHT22;11455;52.390;13.028;2022-12-18T06:00:32;-1.10;42.90
22578;DHT22;11455;52.390;13.028;2022-12-18T06:02:58;-1.00;42.10
22578;DHT22;11455;52.390;13.028;2022-12-18T06:05:24;-1.00;40.20
22578;DHT22;11455;52.390;13.028;2022-12-18T06:07:50;-1.00;44.80
22578;DHT22;11455;52.390;13.028;2022-12-18T06:10:16;-1.00;31.80
22578;DHT22;11455;52.390;13.028;2022-12-18T06:12:41;-1.00;38.60
22578;DHT22;11455;52.390;13.028;2022-12-18T06:15:07;-0.90;40.80
22578;DHT22;11455;52.390;13.028;2022-12-18T06:17:33;-0.90;38.20
22578;DHT22;11455;52.390;13.028;2022-12-18T06:19:59;-0.90;37.90
22578;DHT22;11455;52.390;13.028;2022-12-18T06:22:24;-0.90;35.90
22578;DHT22;11455;52.390;13.028;2022-12-18T06:24:50;-0.90;37.10
22578;DHT22;11455;52.390;13.028;2022-12-18T06:27:16;-0.90;46.00
22578;DHT22;11455;52.390;13.028;2022-12-18T06:29:42;-0.90;53.60
22578;DHT22;11455;52.390;13.028;2022-12-18T06:32:07;-0.90;45.20
22578;DHT22;11455;52.390;13.028;2022-12-18T06:34:33;-0.80;44.50
22578;DHT22;11455;52.390;13.028;2022-12-18T06:36:59;-0.90;49.40
22578;DHT22;11455;52.390;13.028;2022-12-18T06:39:24;-0.90;50.60
22578;DHT22;11455;52.390;13.028;2022-12-18T06:41:52;-0.80;48.90
22578;DHT22;11455;52.390;13.028;2022-12-18T06:44:17;-0.80;53.00
22578;DHT22;11455;52.390;13.028;2022-12-18T06:46:43;-0.80;56.00
22578;DHT22;11455;52.390;13.028;2022-12-18T06:49:09;-0.80;50.70
22578;DHT22;11455;52.390;13.028;2022-12-18T06:51:35;-0.80;53.00
22578;DHT22;11455;52.390;13.028;2022-12-18T06:54:01;-0.80;55.30
22578;DHT22;11455;52.390;13.028;2022-12-18T06:56:26;-0.80;67.40
22578;DHT22;11455;52.390;13.028;2022-12-18T06:58:52;-0.80;68.70
22578;DHT22;11455;52.390;13.028;2022-12-18T07:01:18;-0.80;90.20
22578;DHT22;11455;52.390;13.028;2022-12-18T07:03:43;-0.80;79.00
22578;DHT22;11455;52.390;13.028;2022-12-18T07:06:17;-0.80;77.40
22578;DHT22;11455;52.390;13.028;2022-12-18T07:08:43;-0.80;72.10
22578;DHT22;11455;52.390;13.028;2022-12-18T07:11:09;-0.80;60.20
22578;DHT22;11455;52.390;13.028;2022-12-18T07:13:34;-0.80;76.40
22578;DHT22;11455;52.390;13.028;2022-12-18T07:16:04;-0.80;81.40
22578;DHT22;11455;52.390;13.028;2022-12-18T07:18:29;-0.80;75.00
22578;DHT22;11455;52.390;13.028;2022-12-18T07:20:55;-0.70;84.30
22578;DHT22;11455;52.390;13.028;2022-12-18T07:23:21;-0.70;88.90
22578;DHT22;11455;52.390;13.028;2022-12-18T07:25:47;-0.70;80.50
22578;DHT22;11455;52.390;13.028;2022-12-18T07:28:12;-0.70;66.40
22578;DHT22;11455;52.390;13.028;2022-12-18T07:30:40;-0.60;69.20
22578;DHT22;11455;52.390;13.028;2022-12-18T07:33:06;-0.60;59.10
22578;DHT22;11455;52.390;13.028;2022-12-18T07:35:32;-0.60;60.70
22578;DHT22;11455;52.390;13.028;2022-12-18T07:37:58;-0.60;56.20
22578;DHT22;11455;52.390;13.028;2022-12-18T07:40:24;-0.60;68.70
22578;DHT22;11455;52.390;13.028;2022-12-18T07:42:49;-0.60;68.80
22578;DHT22;11455;52.390;13.028;2022-12-18T07:45:15;-0.70;92.30
22578;DHT22;11455;52.390;13.028;2022-12-18T07:47:41;-0.70;99.90
22578;DHT22;11455;52.390;13.028;2022-12-18T07:50:09;-0.70;99.90
22578;DHT22;11455;52.390;13.028;2022-12-18T07:52:34;-0.70;99.90
22578;DHT22;11455;52.390;13.028;2022-12-18T07:55:00;-0.70;99.90
22578;DHT22;11455;52.390;13.028;2022-12-18T07:57:26;-0.60;99.90
22578;DHT22;11455;52.390;13.028;2022-12-18T07:59:51;-0.60;99.90
22578;DHT22;11455;52.390;13.028;2022-12-18T08:02:17;-0.60;99.90
22578;DHT22;11455;52.390;13.028;2022-12-18T08:04:43;-0.60;99.60
22578;DHT22;11455;52.390;13.028;2022-12-18T08:07:08;-0.60;99.90
22578;DHT22;11455;52.390;13.028;2022-12-18T08:09:34;-0.60;99.90
22578;DHT22;11455;52.390;13.028;2022-12-18T08:12:00;-0.60;99.90
22578;DHT22;11455;52.390;13.028;2022-12-18T08:14:26;-0.60;99.90
22578;DHT22;11455;52.390;13.028;2022-12-18T08:16:51;-0.50;98.40
22578;DHT22;11455;52.390;13.028;2022-12-18T08:19:17;-0.60;99.30
22578;DHT22;11455;52.390;13.028;2022-12-18T08:21:42;-0.50;99.50
22578;DHT22;11455;52.390;13.028;2022-12-18T08:24:08;-0.60;97.20
22578;DHT22;11455;52.390;13.028;2022-12-18T08:26:34;-0.60;99.90
22578;DHT22;11455;52.390;13.028;2022-12-18T08:29:00;-0.60;99.90
22578;DHT22;11455;52.390;13.028;2022-12-18T08:31:26;-0.60;99.90
22578;DHT22;11455;52.390;13.028;2022-12-18T08:33:54;-0.50;99.90
22578;DHT22;11455;52.390;13.028;2022-12-18T08:36:20;-0.50;99.10
22578;DHT22;11455;52.390;13.028;2022-12-18T08:38:46;-0.50;91.10
22578;DHT22;11455;52.390;13.028;2022-12-18T08:41:12;-0.50;89.70
22578;DHT22;11455;52.390;13.028;2022-12-18T08:43:40;-0.50;89.30
22578;DHT22;11455;52.390;13.028;2022-12-18T08:46:25;-0.50;92.50
22578;DHT22;11455;52.390;13.028;2022-12-18T08:48:52;-0.40;85.70
22578;DHT22;11455;52.390;13.028;2022-12-18T08:51:18;-0.50;89.20
22578;DHT22;11455;52.390;13.028;2022-12-18T08:53:44;-0.50;94.30
22578;DHT22;11455;52.390;13.028;2022-12-18T08:56:10;-0.50;92.50
22578;DHT22;11455;52.390;13.028;2022-12-18T08:58:36;-0.60;96.00
22578;DHT22;11455;52.390;13.028;2022-12-18T09:01:02;-0.60;95.90
22578;DHT22;11455;52.390;13.028;2022-12-18T09:03:28;-0.60;99.90
22578;DHT22;11455;52.390;13.028;2022-12-18T09:05:53;-0.60;99.90
22578;DHT22;11455;52.390;13.028;2022-12-18T09:08:19;-0.60;93.90
22578;DHT22;11455;52.390;13.028;2022-12-18T09:10:45;-0.70;99.90
22578;DHT22;11455;52.390;13.028;2022-12-18T09:13:11;-0.60;99.90
22578;DHT22;11455;52.390;13.028;2022-12-18T09:15:44;-0.60;99.30
22578;DHT22;11455;52.390;13.028;2022-12-18T09:18:11;-0.50;99.70
22578;DHT22;11455;52.390;13.028;2022-12-18T09:20:37;-0.50;89.20
22578;DHT22;11455;52.390;13.028;2022-12-18T09:23:06;-0.50;90.90
22578;DHT22;11455;52.390;13.028;2022-12-18T09:25:32;-0.40;87.30
22578;DHT22;11455;52.390;13.028;2022-12-18T09:27:59;-0.50;82.80
22578;DHT22;11455;52.390;13.028;2022-12-18T09:30:25;-0.50;86.40
22578;DHT22;11455;52.390;13.028;2022-12-18T09:32:54;-0.50;85.40
22578;DHT22;11455;52.390;13.028;2022-12-18T09:35:22;-0.50;67.70
22578;DHT22;11455;52.390;13.028;2022-12-18T09:37:47;-0.40;76.10
22578;DHT22;11455;52.390;13.028;2022-12-18T09:40:18;-0.40;74.10
22578;DHT22;11455;52.390;13.028;2022-12-18T09:42:45;-0.40;74.30
22578;DHT22;11455;52.390;13.028;2022-12-18T09:45:12;-0.30;62.30
22578;DHT22;11455;52.390;13.028;2022-12-18T09:47:39;-0.40;47.40
22578;DHT22;11455;52.390;13.028;2022-12-18T09:50:13;-0.40;61.90
22578;DHT22;11455;52.390;13.028;2022-12-18T09:52:45;-0.40;57.50
22578;DHT22;11455;52.390;13.028;2022-12-18T09:57:58;-0.40;50.10
22578;DHT22;11455;52.390;13.028;2022-12-18T10:00:29;-0.50;45.60
22578;DHT22;11455;52.390;13.028;2022-12-18T10:03:02;-0.60;70.50
22578;DHT22;11455;52.390;13.028;2022-12-18T10:08:16;-0.60;74.70
22578;DHT22;11455;52.390;13.028;2022-12-18T10:10:53;-0.50;81.80
22578;DHT22;11455;52.390;13.028;2022-12-18T10:15:56;-0.50;77.80
22578;DHT22;11455;52.390;13.028;2022-12-18T10:18:33;-0.50;77.10
22578;DHT22;11455;52.390;13.028;2022-12-18T10:21:19;-0.40;71.30
22578;DHT22;11455;52.390;13.028;2022-12-18T10:26:12;-0.40;72.80
22578;DHT22;11455;52.390;13.028;2022-12-18T10:28:39;-0.40;76.10
22578;DHT22;11455;52.390;13.028;2022-12-18T10:31:05;-0.30;69.70
22578;DHT22;11455;52.390;13.028;2022-12-18T10:33:33;-0.30;59.10
22578;DHT22;11455;52.390;13.028;2022-12-18T10:35:59;-0.30;59.10
22578;DHT22;11455;52.390;13.028;2022-12-18T10:38:26;-0.30;62.70
22578;DHT22;11455;52.390;13.028;2022-12-18T10:43:22;-0.30;53.00
22578;DHT22;11455;52.390;13.028;2022-12-18T10:45:59;-0.30;60.40
22578;DHT22;11455;52.390;13.028;2022-12-18T10:48:25;-0.30;56.90
22578;DHT22;11455;52.390;13.028;2022-12-18T10:50:52;-0.30;49.40
22578;DHT22;11455;52.390;13.028;2022-12-18T10:53:22;-0.40;75.30
22578;DHT22;11455;52.390;13.028;2022-12-18T10:55:49;-0.30;87.70
22578;DHT22;11455;52.390;13.028;2022-12-18T10:58:16;-0.30;77.50
22578;DHT22;11455;52.390;13.028;2022-12-18T11:00:42;-0.30;74.70
22578;DHT22;11455;52.390;13.028;2022-12-18T11:03:59;-0.30;66.90
22578;DHT22;11455;52.390;13.028;2022-12-18T11:08:32;-0.30;83.60
22578;DHT22;11455;52.390;13.028;2022-12-18T11:10:58;-0.30;80.00
22578;DHT22;11455;52.390;13.028;2022-12-18T11:13:25;-0.30;88.00
22578;DHT22;11455;52.390;13.028;2022-12-18T11:15:51;-0.30;92.50
22578;DHT22;11455;52.390;13.028;2022-12-18T11:18:17;-0.40;93.10
22578;DHT22;11455;52.390;13.028;2022-12-18T11:20:52;-0.40;99.90
22578;DHT22;11455;52.390;13.028;2022-12-18T11:23:18;-0.30;94.70
22578;DHT22;11455;52.390;13.028;2022-12-18T11:25:53;-0.30;96.60
22578;DHT22;11455;52.390;13.028;2022-12-18T11:33:35;-0.20;75.10
22578;DHT22;11455;52.390;13.028;2022-12-18T11:36:02;-0.20;74.00
22578;DHT22;11455;52.390;13.028;2022-12-18T11:38:38;-0.20;88.40
22578;DHT22;11455;52.390;13.028;2022-12-18T11:41:07;-0.20;88.00
22578;DHT22;11455;52.390;13.028;2022-12-18T11:43:38;-0.10;78.20
22578;DHT22;11455;52.390;13.028;2022-12-18T11:46:07;-0.10;80.80
22578;DHT22;11455;52.390;13.028;2022-12-18T11:48:48;-0.10;76.60
22578;DHT22;11455;52.390;13.028;2022-12-18T11:51:18;0.00;66.60
22578;DHT22;11455;52.390;13.028;2022-12-18T11:53:46;0.00;50.10
22578;DHT22;11455;52.390;13.028;2022-12-18T11:58:44;0.00;61.80
22578;DHT22;11455;52.390;13.028;2022-12-18T12:08:59;0.00;59.50
22578;DHT22;11455;52.390;13.028;2022-12-18T12:19:05;0.10;66.60
22578;DHT22;11455;52.390;13.028;2022-12-18T12:21:40;0.10;74.50
22578;DHT22;11455;52.390;13.028;2022-12-18T12:26:37;0.10;63.10
22578;DHT22;11455;52.390;13.028;2022-12-18T12:32:00;0.10;59.50
22578;DHT22;11455;52.390;13.028;2022-12-18T12:34:54;0.20;49.60
22578;DHT22;11455;52.390;13.028;2022-12-18T12:39:49;0.20;59.30
22578;DHT22;11455;52.390;13.028;2022-12-18T12:42:25;0.20;59.00
22578;DHT22;11455;52.390;13.028;2022-12-18T12:45:16;0.20;51.50
22578;DHT22;11455;52.390;13.028;2022-12-18T12:47:43;0.20;55.50
22578;DHT22;11455;52.390;13.028;2022-12-18T12:50:14;0.20;60.00
22578;DHT22;11455;52.390;13.028;2022-12-18T12:52:42;0.20;53.70
22578;DHT22;11455;52.390;13.028;2022-12-18T12:55:13;0.10;54.00
22578;DHT22;11455;52.390;13.028;2022-12-18T12:57:43;0.10;70.80
22578;DHT22;11455;52.390;13.028;2022-12-18T13:05:24;0.10;80.70
22578;DHT22;11455;52.390;13.028;2022-12-18T13:07:53;0.10;99.90
22578;DHT22;11455;52.390;13.028;2022-12-18T13:10:30;0.10;99.90
22578;DHT22;11455;52.390;13.028;2022-12-18T13:18:11;0.10;95.90
22578;DHT22;11455;52.390;13.028;2022-12-18T13:20:45;0.10;96.40
22578;DHT22;11455;52.390;13.028;2022-12-18T13:31:05;0.20;99.90
22578;DHT22;11455;52.390;13.028;2022-12-18T13:33:42;0.20;99.90
22578;DHT22;11455;52.390;13.028;2022-12-18T13:36:14;0.20;97.30
22578;DHT22;11455;52.390;13.028;2022-12-18T13:38:41;0.20;99.90
22578;DHT22;11455;52.390;13.028;2022-12-18T13:46:42;0.30;98.80
22578;DHT22;11455;52.390;13.028;2022-12-18T13:51:47;0.00;99.90
22578;DHT22;11455;52.390;13.028;2022-12-18T13:59:51;0.00;99.90
22578;DHT22;11455;52.390;13.028;2022-12-18T14:02:21;0.00;99.90
22578;DHT22;11455;52.390;13.028;2022-12-18T14:04:49;0.10;99.90
22578;DHT22;11455;52.390;13.028;2022-12-18T14:07:18;0.10;99.90
22578;DHT22;11455;52.390;13.028;2022-12-18T14:09:57;0.20;99.90
22578;DHT22;11455;52.390;13.028;2022-12-18T14:12:27;0.20;99.90
22578;DHT22;11455;52.390;13.028;2022-12-18T14:15:20;0.20;99.90
22578;DHT22;11455;52.390;13.028;2022-12-18T14:17:49;0.00;99.90
22578;DHT22;11455;52.390;13.028;2022-12-18T14:20:17;0.00;99.90
22578;DHT22;11455;52.390;13.028;2022-12-18T14:22:43;0.10;99.90
22578;DHT22;11455;52.390;13.028;2022-12-18T14:27:37;0.00;99.90
22578;DHT22;11455;52.390;13.028;2022-12-18T14:30:18;-0.10;99.90
22578;DHT22;11455;52.390;13.028;2022-12-18T14:33:05;-0.10;99.90
22578;DHT22;11455;52.390;13.028;2022-12-18T14:35:32;-0.20;99.90
22578;DHT22;11455;52.390;13.028;2022-12-18T14:38:18;-0.10;99.90
22578;DHT22;11455;52.390;13.028;2022-12-18T14:40:44;0.00;99.90
22578;DHT22;11455;52.390;13.028;2022-12-18T14:43:10;0.10;99.90
22578;DHT22;11455;52.390;13.028;2022-12-18T14:45:40;0.40;99.90
22578;DHT22;11455;52.390;13.028;2022-12-18T14:48:08;0.50;91.40
22578;DHT22;11455;52.390;13.028;2022-12-18T14:50:34;0.40;99.90
22578;DHT22;11455;52.390;13.028;2022-12-18T14:52:59;0.40;99.90
22578;DHT22;11455;52.390;13.028;2022-12-18T14:55:25;0.30;99.90
22578;DHT22;11455;52.390;13.028;2022-12-18T14:57:52;0.20;90.10
22578;DHT22;11455;52.390;13.028;2022-12-18T15:00:20;0.20;99.90
22578;DHT22;11455;52.390;13.028;2022-12-18T15:02:55;0.20;99.90
22578;DHT22;11455;52.390;13.028;2022-12-18T15:05:26;0.10;99.90
22578;DHT22;11455;52.390;13.028;2022-12-18T15:07:53;0.10;99.90
22578;DHT22;11455;52.390;13.028;2022-12-18T15:10:20;0.00;99.90
22578;DHT22;11455;52.390;13.028;2022-12-18T15:12:47;-0.10;99.90
22578;DHT22;11455;52.390;13.028;2022-12-18T15:18:19;0.00;99.90
22578;DHT22;11455;52.390;13.028;2022-12-18T15:20:52;0.00;99.90
22578;DHT22;11455;52.390;13.028;2022-12-18T15:25:44;-0.10;99.90
22578;DHT22;11455;52.390;13.028;2022-12-18T15:28:53;0.00;99.90
22578;DHT22;11455;52.390;13.028;2022-12-18T15:33:34;-0.10;98.90
22578;DHT22;11455;52.390;13.028;2022-12-18T15:36:00;-0.20;99.90
22578;DHT22;11455;52.390;13.028;2022-12-18T15:38:27;-0.20;97.60
22578;DHT22;11455;52.390;13.028;2022-12-18T15:40:53;-0.20;99.90
22578;DHT22;11455;52.390;13.028;2022-12-18T15:43:22;-0.30;99.90
22578;DHT22;11455;52.390;13.028;2022-12-18T15:46:01;-0.40;99.90
22578;DHT22;11455;52.390;13.028;2022-12-18T15:48:27;-0.30;99.90
22578;DHT22;11455;52.390;13.028;2022-12-18T15:50:53;-0.30;99.90
22578;DHT22;11455;52.390;13.028;2022-12-18T15:53:24;-0.30;99.90
22578;DHT22;11455;52.390;13.028;2022-12-18T15:55:51;-0.20;99.90
22578;DHT22;11455;52.390;13.028;2022-12-18T15:58:35;-0.30;99.90
22578;DHT22;11455;52.390;13.028;2022-12-18T16:01:01;-0.40;99.90
22578;DHT22;11455;52.390;13.028;2022-12-18T16:03:26;-0.40;99.90
22578;DHT22;11455;52.390;13.028;2022-12-18T16:05:55;-0.40;99.90
22578;DHT22;11455;52.390;13.028;2022-12-18T16:08:23;-0.30;99.90
22578;DHT22;11455;52.390;13.028;2022-12-18T16:10:49;-0.40;99.00
22578;DHT22;11455;52.390;13.028;2022-12-18T16:13:16;-0.40;99.90
22578;DHT22;11455;52.390;13.028;2022-12-18T16:15:44;-0.30;99.90
22578;DHT22;11455;52.390;13.028;2022-12-18T16:18:12;-0.20;99.90
22578;DHT22;11455;52.390;13.028;2022-12-18T16:20:38;-0.10;99.90
22578;DHT22;11455;52.390;13.028;2022-12-18T16:23:05;0.00;99.90
22578;DHT22;11455;52.390;13.028;2022-12-18T16:25:31;0.10;93.70
22578;DHT22;11455;52.390;13.028;2022-12-18T16:27:57;0.10;85.50
22578;DHT22;11455;52.390;13.028;2022-12-18T16:30:27;0.00;65.00
22578;DHT22;11455;52.390;13.028;2022-12-18T16:32:54;0.10;76.90
22578;DHT22;11455;52.390;13.028;2022-12-18T16:35:19;0.10;55.10
22578;DHT22;11455;52.390;13.028;2022-12-18T16:37:45;0.20;66.50
22578;DHT22;11455;52.390;13.028;2022-12-18T16:40:12;0.10;39.90
22578;DHT22;11455;52.390;13.028;2022-12-18T16:42:39;0.10;34.60
22578;DHT22;11455;52.390;13.028;2022-12-18T16:45:05;0.00;30.00
22578;DHT22;11455;52.390;13.028;2022-12-18T16:47:34;-0.10;49.00
22578;DHT22;11455;52.390;13.028;2022-12-18T16:50:00;-0.10;55.20
22578;DHT22;11455;52.390;13.028;2022-12-18T16:52:25;-0.10;56.90
22578;DHT22;11455;52.390;13.028;2022-12-18T16:54:51;-0.20;68.60
22578;DHT22;11455;52.390;13.028;2022-12-18T16:57:17;-0.10;71.70
22578;DHT22;11455;52.390;13.028;2022-12-18T16:59:44;-0.10;60.70
22578;DHT22;11455;52.390;13.028;2022-12-18T17:02:12;-0.10;59.60
22578;DHT22;11455;52.390;13.028;2022-12-18T17:04:38;-0.10;59.80
22578;DHT22;11455;52.390;13.028;2022-12-18T17:07:04;-0.10;61.40
22578;DHT22;11455;52.390;13.028;2022-12-18T17:09:29;-0.10;58.50
22578;DHT22;11455;52.390;13.028;2022-12-18T17:11:55;-0.10;56.60
22578;DHT22;11455;52.390;13.028;2022-12-18T17:14:22;-0.10;74.10
22578;DHT22;11455;52.390;13.028;2022-12-18T17:16:48;-0.10;59.10
22578;DHT22;11455;52.390;13.028;2022-12-18T17:19:14;-0.10;54.50
22578;DHT22;11455;52.390;13.028;2022-12-18T17:21:41;-0.10;48.30
22578;DHT22;11455;52.390;13.028;2022-12-18T17:24:07;-0.10;54.80
22578;DHT22;11455;52.390;13.028;2022-12-18T17:26:33;-0.10;52.20
22578;DHT22;11455;52.390;13.028;2022-12-18T17:28:59;-0.20;52.80
22578;DHT22;11455;52.390;13.028;2022-12-18T17:31:25;-0.10;54.40